Time;durP1;ratioP1;P1;durP2;ratioP2;P2;SDS_P1;SDS_P2;PMS_P1;PMS_P2;Temp;Humidity;BMP_temperature;BMP_pressure;BME280_temperature;BME280_humidity;BME280_pressure;Samples;Min_cycle;Max_cycle;Signal;HPM_P1;HPM_P2
2024/05/01 00:01:58;;;;;;;6.40;2.45;;;21.10;99.90;;;;;;5120467;27;20156;-94
2024/05/01 00:04:25;;;;;;;4.72;1.80;;;21.10;99.90;;;;;;5120767;27;20097;-94
2024/05/01 00:06:52;;;;;;;5.43;2.30;;;21.20;99.90;;;;;;5094545;27;20061;-94
2024/05/01 00:09:20;;;;;;;7.65;2.15;;;21.20;99.90;;;;;;5120570;27;20061;-94
2024/05/01 00:11:47;;;;;;;10.60;2.30;;;21.20;99.90;;;;;;5120362;27;20093;-93
2024/05/01 00:14:16;;;;;;;3.80;1.88;;;21.30;99.90;;;;;;5120115;27;20100;-94
2024/05/01 00:16:43;;;;;;;5.25;1.85;;;21.30;99.90;;;;;;5120260;27;20083;-93
2024/05/01 00:19:12;;;;;;;5.13;2.25;;;21.30;99.90;;;;;;5120629;27;20069;-93
2024/05/01 00:21:40;;;;;;;6.25;1.90;;;21.30;99.90;;;;;;5094080;27;20130;-93
2024/05/01 00:24:07;;;;;;;6.43;2.28;;;21.30;99.90;;;;;;5094278;27;20136;-93
2024/05/01 00:26:34;;;;;;;4.45;1.90;;;21.30;99.90;;;;;;5120538;27;20537;-93
2024/05/01 00:29:01;;;;;;;7.75;2.25;;;21.30;99.90;;;;;;5119202;27;20060;-94
2024/05/01 00:31:28;;;;;;;5.40;2.67;;;21.20;99.90;;;;;;5120250;27;20074;-93
2024/05/01 00:33:56;;;;;;;4.20;2.10;;;21.20;99.90;;;;;;5120266;27;20069;-94
2024/05/01 00:36:24;;;;;;;3.83;1.98;;;21.20;99.90;;;;;;5120232;27;20087;-94
2024/05/01 00:38:52;;;;;;;3.80;1.88;;;21.20;99.90;;;;;;5120298;27;20418;-94
2024/05/01 00:41:19;;;;;;;3.13;2.03;;;21.10;99.90;;;;;;5093650;27;20061;-94
2024/05/01 00:43:46;;;;;;;4.68;2.33;;;21.10;99.90;;;;;;5143547;27;20112;-93
2024/05/01 00:46:13;;;;;;;6.15;2.20;;;21.10;99.90;;;;;;5151964;27;20105;-94
2024/05/01 00:48:41;;;;;;;5.40;2.40;;;21.10;99.90;;;;;;5152236;27;20390;-94
2024/05/01 00:51:08;;;;;;;4.05;2.35;;;21.10;99.90;;;;;;5151931;27;20076;-94
2024/05/01 00:53:35;;;;;;;5.82;2.78;;;21.00;99.90;;;;;;5152122;27;20069;-93
2024/05/01 00:56:03;;;;;;;4.47;2.45;;;21.00;99.90;;;;;;5153018;27;20080;-94
2024/05/01 00:58:31;;;;;;;7.05;2.40;;;21.00;99.90;;;;;;5184415;27;20110;-95
2024/05/01 01:00:58;;;;;;;4.10;2.22;;;21.00;99.90;;;;;;5184271;27;20063;-94
2024/05/01 01:03:26;;;;;;;4.07;2.60;;;20.90;99.90;;;;;;5184284;27;20587;-95
2024/05/01 01:05:53;;;;;;;7.10;3.00;;;20.90;99.90;;;;;;5156877;27;20060;-94
2024/05/01 01:08:20;;;;;;;5.25;2.38;;;20.90;99.90;;;;;;5168811;27;20094;-93
2024/05/01 01:10:47;;;;;;;8.77;2.50;;;20.90;99.90;;;;;;5184005;27;20079;-93
2024/05/01 01:13:15;;;;;;;5.85;2.38;;;20.90;99.90;;;;;;5184356;27;20091;-94
2024/05/01 01:15:42;;;;;;;7.07;2.80;;;20.90;99.90;;;;;;5184149;27;20059;-94
2024/05/01 01:18:10;;;;;;;5.47;2.70;;;20.80;99.90;;;;;;5184243;27;20544;-95
2024/05/01 01:20:37;;;;;;;5.03;2.63;;;20.80;99.90;;;;;;5184633;27;20059;-94
2024/05/01 01:23:05;;;;;;;6.03;2.55;;;20.90;99.90;;;;;;5184268;27;20059;-93
2024/05/01 01:25:32;;;;;;;5.15;2.47;;;20.80;99.90;;;;;;5183873;27;20098;-93
2024/05/01 01:27:59;;;;;;;7.45;2.50;;;20.90;99.90;;;;;;5184116;27;20077;-94
2024/05/01 01:30:26;;;;;;;5.57;2.17;;;21.00;99.90;;;;;;5183906;27;20063;-94
2024/05/01 01:32:53;;;;;;;5.20;2.53;;;21.00;99.90;;;;;;5184086;27;20059;-95
2024/05/01 01:35:20;;;;;;;7.32;2.53;;;21.00;99.90;;;;;;5183738;27;20059;-95
2024/05/01 01:37:47;;;;;;;8.82;2.60;;;21.00;99.90;;;;;;5183517;27;20091;-94
2024/05/01 01:40:15;;;;;;;5.15;2.35;;;21.00;99.90;;;;;;5186197;27;20056;-94
2024/05/01 01:42:42;;;;;;;3.75;2.35;;;21.00;99.90;;;;;;5187155;27;20068;-95
2024/05/01 01:45:09;;;;;;;3.90;2.50;;;21.10;99.90;;;;;;5186575;27;20059;-93
2024/05/01 01:47:36;;;;;;;4.20;2.28;;;21.00;99.90;;;;;;5186823;27;20082;-95
2024/05/01 01:50:04;;;;;;;5.80;2.53;;;20.90;99.90;;;;;;5187464;27;20059;-94
2024/05/01 01:52:31;;;;;;;5.97;2.40;;;20.90;99.90;;;;;;5186652;27;20150;-94
2024/05/01 01:54:58;;;;;;;7.07;2.78;;;20.90;99.90;;;;;;5186849;27;20395;-94
2024/05/01 01:57:25;;;;;;;6.93;2.50;;;20.90;99.90;;;;;;5186472;27;20520;-93
2024/05/01 01:59:52;;;;;;;8.20;2.40;;;20.90;99.90;;;;;;5170259;27;20068;-94
2024/05/01 02:02:19;;;;;;;7.28;2.33;;;20.90;99.90;;;;;;5154076;27;20065;-94
2024/05/01 02:04:46;;;;;;;6.90;2.95;;;20.80;99.90;;;;;;5154053;27;20056;-93
2024/05/01 02:07:13;;;;;;;4.75;2.33;;;20.80;99.90;;;;;;5127959;27;20061;-93
2024/05/01 02:09:41;;;;;;;4.95;2.25;;;20.80;99.90;;;;;;5153932;27;20095;-94
2024/05/01 02:12:08;;;;;;;6.90;2.33;;;20.80;99.90;;;;;;5127461;27;20103;-94
2024/05/01 02:14:35;;;;;;;5.97;2.25;;;20.80;99.90;;;;;;5121691;27;20079;-93
2024/05/01 02:17:02;;;;;;;8.13;2.10;;;20.80;99.90;;;;;;5121920;27;20089;-94
2024/05/01 02:19:29;;;;;;;6.05;2.55;;;20.90;99.90;;;;;;5095717;27;20073;-94
2024/05/01 02:21:56;;;;;;;4.47;2.42;;;20.90;99.90;;;;;;5095578;27;20519;-93
2024/05/01 02:24:24;;;;;;;8.77;2.30;;;20.90;99.90;;;;;;5095995;27;20100;-93
2024/05/01 02:26:51;;;;;;;4.43;2.25;;;21.00;99.90;;;;;;5148901;27;20065;-93
2024/05/01 02:29:18;;;;;;;8.30;2.55;;;20.90;99.90;;;;;;5095852;27;20096;-93
2024/05/01 02:31:45;;;;;;;7.40;2.60;;;20.80;99.90;;;;;;5121858;27;20088;-93
2024/05/01 02:34:13;;;;;;;4.95;2.25;;;20.80;99.90;;;;;;5095338;27;20507;-93
2024/05/01 02:36:40;;;;;;;4.13;2.50;;;20.80;99.90;;;;;;5095811;27;20061;-93
2024/05/01 02:39:07;;;;;;;4.57;2.40;;;20.90;99.90;;;;;;5095436;27;20076;-94
2024/05/01 02:41:34;;;;;;;5.90;2.45;;;20.90;99.90;;;;;;5182623;27;20115;-94
2024/05/01 02:44:01;;;;;;;5.20;2.42;;;20.80;99.90;;;;;;5185825;27;20082;-93
2024/05/01 02:46:28;;;;;;;7.35;2.50;;;20.80;99.90;;;;;;5186199;27;20059;-93
2024/05/01 02:48:55;;;;;;;5.53;2.15;;;20.80;99.90;;;;;;5186208;27;20092;-94
2024/05/01 02:51:22;;;;;;;7.32;2.38;;;20.80;99.90;;;;;;5185522;27;20343;-94
2024/05/01 02:53:50;;;;;;;8.15;2.50;;;20.80;99.90;;;;;;5186064;27;20067;-94
2024/05/01 02:56:17;;;;;;;8.23;2.60;;;20.80;99.90;;;;;;5185978;27;20079;-94
2024/05/01 02:58:44;;;;;;;5.43;2.40;;;20.80;99.90;;;;;;5185998;27;20067;-94
2024/05/01 03:01:13;;;;;;;5.00;2.55;;;20.80;99.90;;;;;;5166319;27;20094;-93
2024/05/01 03:03:41;;;;;;;7.75;2.33;;;20.90;99.90;;;;;;5127049;27;20418;-94
2024/05/01 03:06:08;;;;;;;5.45;2.50;;;20.80;99.90;;;;;;5153226;27;20072;-94
2024/05/01 03:08:35;;;;;;;7.50;2.67;;;20.80;99.90;;;;;;5153622;27;20068;-93
2024/05/01 03:11:02;;;;;;;6.22;2.50;;;20.90;99.90;;;;;;5127015;27;20064;-93
2024/05/01 03:13:30;;;;;;;5.65;2.63;;;20.90;99.90;;;;;;5153638;27;20056;-94
2024/05/01 03:15:58;;;;;;;4.65;2.40;;;20.90;99.90;;;;;;5153486;27;20075;-93
2024/05/01 03:18:25;;;;;;;4.90;2.28;;;20.90;99.90;;;;;;5153239;27;20068;-94
2024/05/01 03:20:52;;;;;;;6.53;2.47;;;20.90;99.90;;;;;;5127058;27;20068;-94
2024/05/01 03:23:20;;;;;;;6.18;2.75;;;20.80;99.90;;;;;;5153322;27;20071;-94
2024/05/01 03:25:47;;;;;;;5.15;2.53;;;20.80;99.90;;;;;;5153140;27;20068;-95
2024/05/01 03:28:14;;;;;;;7.50;2.63;;;20.80;99.90;;;;;;5153265;27;20056;-93
2024/05/01 03:30:41;;;;;;;7.32;2.63;;;20.80;99.90;;;;;;5153362;27;20151;-94
2024/05/01 03:33:08;;;;;;;6.03;2.30;;;20.80;99.90;;;;;;5157665;27;20159;-93
2024/05/01 03:35:35;;;;;;;6.95;2.70;;;20.80;99.90;;;;;;5185819;27;20063;-93
2024/05/01 03:38:02;;;;;;;4.57;2.63;;;20.80;99.90;;;;;;5185019;27;20143;-94
2024/05/01 03:40:29;;;;;;;6.13;2.78;;;20.80;99.90;;;;;;5176154;27;20068;-94
2024/05/01 03:42:57;;;;;;;8.20;2.75;;;20.70;99.90;;;;;;5153026;27;20060;-95
2024/05/01 03:45:24;;;;;;;7.32;2.78;;;20.70;99.90;;;;;;5152870;27;20513;-94
2024/05/01 03:47:51;;;;;;;5.60;2.35;;;20.70;99.90;;;;;;5126536;27;20116;-94
2024/05/01 03:50:18;;;;;;;6.00;2.63;;;20.70;99.90;;;;;;5152801;27;20060;-93
2024/05/01 03:52:45;;;;;;;5.57;2.85;;;20.70;99.90;;;;;;5126288;27;20064;-93
2024/05/01 03:55:12;;;;;;;8.77;3.03;;;20.60;99.90;;;;;;5152456;27;20072;-94
2024/05/01 03:57:39;;;;;;;8.07;2.33;;;20.60;99.90;;;;;;5126090;27;20064;-94
2024/05/01 04:00:07;;;;;;;9.88;3.03;;;20.60;99.90;;;;;;5126367;27;20405;-94
2024/05/01 04:02:35;;;;;;;9.02;2.85;;;20.60;99.90;;;;;;5124964;27;20096;-94
2024/05/01 04:05:08;;;;;;;3.88;2.20;;;20.50;99.90;;;;;;5152936;27;20147;-93
2024/05/01 04:07:36;;;;;;;5.32;2.40;;;20.50;99.90;;;;;;5125941;27;20060;-93
2024/05/01 04:10:04;;;;;;;8.43;2.70;;;20.50;99.90;;;;;;5152713;27;20096;-93
2024/05/01 04:12:32;;;;;;;8.80;3.10;;;20.40;99.90;;;;;;5126132;27;20157;-94
2024/05/01 04:14:59;;;;;;;4.93;2.70;;;20.40;99.90;;;;;;5152270;27;20095;-93
2024/05/01 04:17:26;;;;;;;6.15;2.75;;;20.40;99.90;;;;;;5152402;27;20080;-93
2024/05/01 04:19:54;;;;;;;8.40;2.58;;;20.30;99.90;;;;;;5125846;27;20060;-93
2024/05/01 04:22:21;;;;;;;9.35;2.50;;;20.30;99.90;;;;;;5152000;27;20504;-95
2024/05/01 04:24:50;;;;;;;4.75;2.40;;;20.30;99.90;;;;;;5152749;27;20068;-93
2024/05/01 04:27:17;;;;;;;8.30;2.60;;;20.20;99.90;;;;;;5152299;27;20056;-93
2024/05/01 04:29:45;;;;;;;5.85;2.78;;;20.30;99.90;;;;;;5152908;27;20068;-94
2024/05/01 04:32:12;;;;;;;7.75;2.58;;;20.30;99.90;;;;;;5126025;27;20064;-93
2024/05/01 04:34:40;;;;;;;5.20;2.70;;;20.30;99.90;;;;;;5152753;27;20604;-93
2024/05/01 04:37:07;;;;;;;6.90;2.53;;;20.30;99.90;;;;;;5126004;27;20073;-94
2024/05/01 04:39:34;;;;;;;7.93;2.88;;;20.20;99.90;;;;;;5162152;27;20068;-94
2024/05/01 04:42:01;;;;;;;8.85;2.70;;;20.30;99.90;;;;;;5163077;27;20072;-94
2024/05/01 04:44:28;;;;;;;7.80;2.85;;;20.20;99.90;;;;;;5152008;27;20061;-94
2024/05/01 04:46:55;;;;;;;7.30;2.92;;;20.20;99.90;;;;;;5125885;27;20060;-93
2024/05/01 04:49:23;;;;;;;8.93;2.63;;;20.20;99.90;;;;;;5152609;27;20472;-94
2024/05/01 04:51:50;;;;;;;8.20;2.70;;;20.30;99.90;;;;;;5138752;27;20098;-93
2024/05/01 04:54:17;;;;;;;7.38;3.00;;;20.20;99.90;;;;;;5152071;27;20064;-94
2024/05/01 04:56:44;;;;;;;7.43;2.70;;;20.20;99.90;;;;;;5152448;27;20577;-94
2024/05/01 04:59:11;;;;;;;6.55;2.67;;;20.30;99.90;;;;;;5152163;27;20436;-94
2024/05/01 05:01:38;;;;;;;5.95;2.70;;;20.30;99.90;;;;;;5152164;27;20155;-93
2024/05/01 05:04:06;;;;;;;11.50;3.00;;;20.20;99.90;;;;;;5152338;27;20550;-93
2024/05/01 05:06:33;;;;;;;5.82;2.60;;;20.30;99.90;;;;;;5152121;27;20068;-94
2024/05/01 05:09:04;;;;;;;9.05;2.83;;;20.30;99.90;;;;;;5153562;27;20067;-94
2024/05/01 05:11:35;;;;;;;7.72;2.70;;;20.20;99.90;;;;;;5184352;27;20093;-95
2024/05/01 05:14:02;;;;;;;6.72;2.80;;;20.20;99.90;;;;;;5184201;27;20059;-93
2024/05/01 05:16:30;;;;;;;8.43;2.58;;;20.30;99.90;;;;;;5183890;27;20128;-94
2024/05/01 05:18:57;;;;;;;6.15;2.60;;;20.30;99.90;;;;;;5184610;27;20071;-94
2024/05/01 05:21:24;;;;;;;7.72;3.35;;;20.30;99.90;;;;;;5184045;27;20544;-94
2024/05/01 05:23:51;;;;;;;5.85;2.53;;;20.30;99.90;;;;;;5184338;27;20078;-94
2024/05/01 05:26:18;;;;;;;6.68;2.55;;;20.30;99.90;;;;;;5183816;27;20059;-94
2024/05/01 05:28:45;;;;;;;8.82;2.60;;;20.30;99.90;;;;;;5183830;27;20530;-92
2024/05/01 05:31:12;;;;;;;11.63;2.58;;;20.40;99.90;;;;;;5183960;27;20061;-92
2024/05/01 05:33:44;;;;;;;7.80;2.45;;;20.40;99.90;;;;;;5184118;27;20543;-93
2024/05/01 05:36:12;;;;;;;8.45;2.90;;;20.30;99.90;;;;;;5184091;27;20067;-93
2024/05/01 05:38:39;;;;;;;10.32;2.90;;;20.40;99.90;;;;;;5183765;27;20078;-93
2024/05/01 05:41:06;;;;;;;9.02;2.97;;;20.40;99.90;;;;;;5184105;27;20082;-93
2024/05/01 05:43:33;;;;;;;8.88;2.55;;;20.50;99.90;;;;;;5158142;27;20069;-93
2024/05/01 05:46:00;;;;;;;7.78;2.50;;;20.50;99.90;;;;;;5124803;27;20084;-94
2024/05/01 05:48:27;;;;;;;11.13;3.58;;;20.60;99.90;;;;;;5178225;27;20068;-94
2024/05/01 05:50:55;;;;;;;7.90;2.65;;;20.70;99.90;;;;;;5184084;27;20114;-94
2024/05/01 05:53:25;;;;;;;12.20;2.97;;;20.70;99.90;;;;;;5159888;27;20592;-94
2024/05/01 05:55:52;;;;;;;11.15;3.22;;;20.80;99.90;;;;;;5150893;27;20533;-94
2024/05/01 05:58:19;;;;;;;12.43;3.65;;;20.80;99.90;;;;;;5124148;27;20148;-94
2024/05/01 06:00:46;;;;;;;9.18;2.70;;;20.80;99.90;;;;;;5150861;27;20083;-94
2024/05/01 06:03:13;;;;;;;6.72;3.28;;;20.80;99.90;;;;;;5124945;27;20143;-94
2024/05/01 06:05:41;;;;;;;7.47;3.35;;;20.80;99.90;;;;;;5150893;27;20060;-94
2024/05/01 06:08:08;;;;;;;8.38;3.70;;;20.80;99.90;;;;;;5124430;27;20079;-94
2024/05/01 06:10:35;;;;;;;16.00;3.65;;;20.80;99.90;;;;;;5150379;27;20064;-94
2024/05/01 06:13:02;;;;;;;11.48;3.85;;;20.80;99.90;;;;;;5135226;27;20068;-94
2024/05/01 06:15:29;;;;;;;9.30;3.63;;;20.80;99.90;;;;;;5150498;27;20064;-94
2024/05/01 06:17:57;;;;;;;10.45;3.63;;;20.80;99.90;;;;;;5150915;27;20069;-95
2024/05/01 06:20:24;;;;;;;16.23;3.90;;;20.80;99.90;;;;;;5124424;27;20064;-95
2024/05/01 06:22:53;;;;;;;23.27;4.40;;;20.80;99.90;;;;;;5177689;22;20171;-95
2024/05/01 06:25:20;;;;;;;12.48;3.58;;;20.80;99.90;;;;;;5177384;27;20060;-95
2024/05/01 06:27:47;;;;;;;10.50;3.80;;;20.80;99.90;;;;;;5154334;27;20083;-94
2024/05/01 06:30:15;;;;;;;7.47;3.03;;;20.80;99.90;;;;;;5154916;27;20397;-93
2024/05/01 06:32:42;;;;;;;9.75;3.30;;;20.80;99.90;;;;;;5180970;27;20099;-93
2024/05/01 06:35:10;;;;;;;11.88;3.10;;;20.80;99.90;;;;;;5180839;27;20061;-94
2024/05/01 06:37:38;;;;;;;9.02;3.25;;;20.80;99.90;;;;;;5181635;27;20120;-93
2024/05/01 06:40:08;;;;;;;7.65;3.30;;;20.80;99.90;;;;;;5185533;27;20143;-93
2024/05/01 06:42:36;;;;;;;12.23;3.40;;;20.70;99.90;;;;;;5155664;27;20083;-95
2024/05/01 06:45:04;;;;;;;6.63;3.00;;;20.70;99.90;;;;;;5181093;27;20623;-94
2024/05/01 06:47:31;;;;;;;11.18;2.85;;;20.70;99.90;;;;;;5164090;27;20083;-92
2024/05/01 06:49:58;;;;;;;7.00;2.80;;;20.80;99.90;;;;;;5162205;27;20152;-93
2024/05/01 06:52:26;;;;;;;6.85;2.70;;;20.80;99.90;;;;;;5154044;27;20148;-94
2024/05/01 06:54:53;;;;;;;7.15;2.78;;;20.80;99.90;;;;;;5154604;27;20058;-92
2024/05/01 06:57:21;;;;;;;6.03;2.60;;;20.90;99.90;;;;;;5153772;27;20083;-94
2024/05/01 06:59:48;;;;;;;6.07;2.58;;;21.00;99.90;;;;;;5155637;27;20057;-93
2024/05/01 07:02:16;;;;;;;6.28;2.72;;;21.20;99.90;;;;;;5154460;27;20087;-93
2024/05/01 07:04:43;;;;;;;12.68;3.15;;;21.30;99.90;;;;;;5153803;27;20060;-93
2024/05/01 07:07:12;;;;;;;12.35;3.40;;;21.30;99.90;;;;;;5153891;27;20060;-92
2024/05/01 07:09:39;;;;;;;11.93;3.63;;;21.30;99.90;;;;;;5153968;27;20537;-92
2024/05/01 07:12:07;;;;;;;9.27;3.10;;;21.30;99.90;;;;;;5154229;27;20086;-91
2024/05/01 07:14:34;;;;;;;12.05;3.17;;;21.30;99.90;;;;;;5154321;27;20083;-93
2024/05/01 07:17:01;;;;;;;7.22;3.40;;;21.30;99.90;;;;;;5153540;27;20091;-93
2024/05/01 07:19:29;;;;;;;8.07;3.30;;;21.30;99.90;;;;;;5153324;27;20068;-92
2024/05/01 07:21:56;;;;;;;5.65;2.90;;;21.40;99.90;;;;;;5180487;27;20086;-95
2024/05/01 07:24:23;;;;;;;20.63;3.45;;;21.40;99.90;;;;;;5159719;27;20075;-93
2024/05/01 07:26:50;;;;;;;6.15;3.20;;;21.40;99.90;;;;;;5185770;27;20099;-95
2024/05/01 07:29:18;;;;;;;6.10;3.47;;;21.30;99.90;;;;;;5158967;27;20107;-94
2024/05/01 07:31:45;;;;;;;6.95;3.30;;;21.30;99.90;;;;;;5185317;27;20059;-94
2024/05/01 07:34:12;;;;;;;8.00;3.25;;;21.30;99.90;;;;;;5185517;27;20071;-93
2024/05/01 07:36:43;;;;;;;10.15;3.47;;;21.20;99.90;;;;;;5185663;27;20056;-94
2024/05/01 07:39:10;;;;;;;9.80;3.88;;;21.20;99.90;;;;;;5186778;27;20070;-87
2024/05/01 07:41:37;;;;;;;7.60;3.90;;;21.30;99.90;;;;;;5159558;27;20158;-89
2024/05/01 07:44:04;;;;;;;12.38;3.35;;;21.30;99.90;;;;;;5185207;27;20543;-90
2024/05/01 07:46:31;;;;;;;7.18;3.78;;;21.40;99.90;;;;;;5157698;27;20070;-89
2024/05/01 07:48:58;;;;;;;12.25;3.63;;;21.50;99.90;;;;;;5212386;27;20058;-89
2024/05/01 07:51:25;;;;;;;6.63;3.05;;;21.60;99.90;;;;;;5159161;27;20064;-88
2024/05/01 07:53:52;;;;;;;6.68;2.92;;;21.70;99.90;;;;;;5186724;27;20063;-87
2024/05/01 07:56:19;;;;;;;6.95;2.67;;;21.70;99.90;;;;;;5186328;27;20089;-89
2024/05/01 07:58:46;;;;;;;7.00;2.85;;;21.80;99.90;;;;;;5184919;27;20059;-87
2024/05/01 08:01:13;;;;;;;8.05;3.03;;;21.80;99.90;;;;;;5184488;27;20185;-88
2024/05/01 08:03:41;;;;;;;7.80;3.00;;;21.80;99.90;;;;;;5185039;27;20146;-88
2024/05/01 08:06:08;;;;;;;10.13;3.53;;;21.70;99.90;;;;;;5211828;27;20059;-88
2024/05/01 08:08:35;;;;;;;5.35;2.88;;;21.70;99.90;;;;;;5184868;27;20123;-88
2024/05/01 08:11:02;;;;;;;5.60;2.80;;;21.80;99.90;;;;;;5211839;27;20067;-88
2024/05/01 08:13:29;;;;;;;5.25;2.65;;;21.80;99.90;;;;;;5184459;27;20066;-88
2024/05/01 08:15:56;;;;;;;6.93;2.47;;;21.80;99.90;;;;;;5184414;27;20060;-90
2024/05/01 08:18:23;;;;;;;4.57;2.60;;;21.70;99.90;;;;;;5185194;27;20506;-89
2024/05/01 08:20:50;;;;;;;4.72;2.70;;;22.00;99.90;;;;;;5211432;27;20095;-88
2024/05/01 08:23:18;;;;;;;7.00;3.13;;;22.20;99.90;;;;;;5184228;27;20064;-89
2024/05/01 08:25:50;;;;;;;9.38;3.08;;;22.40;99.90;;;;;;5211946;27;20063;-88
2024/05/01 08:28:18;;;;;;;9.73;3.50;;;22.40;99.90;;;;;;5184597;27;20462;-89
2024/05/01 08:30:45;;;;;;;12.27;3.38;;;22.50;99.90;;;;;;5211144;27;20062;-88
2024/05/01 08:33:12;;;;;;;7.78;3.80;;;22.20;99.90;;;;;;5213283;27;20105;-89
2024/05/01 08:35:39;;;;;;;9.43;3.10;;;22.20;99.90;;;;;;5211519;27;20085;-89
2024/05/01 08:38:06;;;;;;;8.45;2.90;;;22.30;99.90;;;;;;5184364;27;20519;-88
2024/05/01 08:40:34;;;;;;;6.28;2.90;;;22.40;99.90;;;;;;5184368;27;20061;-89
2024/05/01 08:43:01;;;;;;;9.63;3.22;;;22.50;99.90;;;;;;5194914;27;20066;-89
2024/05/01 08:45:31;;;;;;;6.05;3.00;;;22.70;99.90;;;;;;5156921;27;20411;-89
2024/05/01 08:48:00;;;;;;;7.82;2.83;;;22.80;99.90;;;;;;5183609;27;20081;-89
2024/05/01 08:50:29;;;;;;;5.50;2.90;;;22.80;99.90;;;;;;5183433;27;20058;-88
2024/05/01 08:53:00;;;;;;;4.53;2.60;;;22.80;99.90;;;;;;5211721;27;20070;-89
2024/05/01 08:55:29;;;;;;;8.48;2.30;;;22.80;99.90;;;;;;5184216;27;20094;-88
2024/05/01 08:57:58;;;;;;;8.88;2.78;;;22.70;99.90;;;;;;5184331;27;20408;-88
2024/05/01 09:00:26;;;;;;;5.28;2.60;;;22.90;99.90;;;;;;5184245;27;20439;-88
2024/05/01 09:02:54;;;;;;;5.10;2.78;;;23.10;99.90;;;;;;5184033;27;20081;-89
2024/05/01 09:05:21;;;;;;;5.25;2.72;;;23.00;99.90;;;;;;5157441;27;20066;-90
2024/05/01 09:07:52;;;;;;;9.07;2.90;;;23.00;99.90;;;;;;5183427;27;20062;-88
2024/05/01 09:10:20;;;;;;;6.53;3.10;;;23.00;99.90;;;;;;5183657;27;20062;-87
2024/05/01 09:12:47;;;;;;;6.80;2.47;;;23.00;99.90;;;;;;5183316;27;20062;-88
2024/05/01 09:15:14;;;;;;;3.90;2.70;;;23.10;99.90;;;;;;5183702;27;20058;-87
2024/05/01 09:17:41;;;;;;;5.68;2.42;;;22.90;99.90;;;;;;5184089;27;20060;-87
2024/05/01 09:20:16;;;;;;;8.63;2.92;;;22.70;99.90;;;;;;5212813;27;20060;-88
2024/05/01 09:22:53;;;;;;;6.88;3.00;;;22.70;99.90;;;;;;5212717;27;20090;-89
2024/05/01 09:25:22;;;;;;;6.55;2.85;;;22.80;99.90;;;;;;5156840;27;20145;-89
2024/05/01 09:27:51;;;;;;;7.13;2.75;;;22.80;99.90;;;;;;5183920;27;20058;-89
2024/05/01 09:30:18;;;;;;;10.93;2.90;;;22.80;99.90;;;;;;5156419;27;20081;-88
2024/05/01 09:32:45;;;;;;;5.45;2.75;;;22.90;99.90;;;;;;5156717;27;20120;-89
2024/05/01 09:35:13;;;;;;;6.88;2.88;;;23.00;99.90;;;;;;5156804;27;20071;-88
2024/05/01 09:37:43;;;;;;;9.18;3.33;;;22.90;99.90;;;;;;5183797;27;20527;-89
2024/05/01 09:40:11;;;;;;;12.30;3.92;;;22.90;99.90;;;;;;5183337;27;20059;-89
2024/05/01 09:42:40;;;;;;;8.20;3.50;;;22.90;99.90;;;;;;5156631;27;20081;-88
2024/05/01 09:45:09;;;;;;;9.25;3.28;;;22.90;99.90;;;;;;5183795;27;20086;-89
2024/05/01 09:47:38;;;;;;;5.43;2.45;;;22.90;99.90;;;;;;5183166;27;20404;-88
2024/05/01 09:50:08;;;;;;;8.13;2.90;;;22.90;99.90;;;;;;5156679;27;20081;-89
2024/05/01 09:52:36;;;;;;;5.78;2.72;;;22.90;99.90;;;;;;5156383;27;20403;-88
2024/05/01 09:55:04;;;;;;;8.95;3.05;;;22.90;99.90;;;;;;5182874;27;20508;-88
2024/05/01 09:57:34;;;;;;;6.35;2.83;;;22.90;99.90;;;;;;5155431;27;20126;-89
2024/05/01 10:00:07;;;;;;;5.40;2.65;;;22.90;99.90;;;;;;5183261;27;20087;-90
2024/05/01 10:02:40;;;;;;;9.00;3.13;;;22.90;99.90;;;;;;5186991;27;20075;-91
2024/05/01 10:05:10;;;;;;;6.80;2.67;;;22.90;99.90;;;;;;5186249;27;20121;-91
2024/05/01 10:07:45;;;;;;;7.78;2.88;;;23.00;99.90;;;;;;5186424;27;20105;-90
2024/05/01 10:10:13;;;;;;;8.50;2.90;;;22.90;99.90;;;;;;5185922;27;20062;-90
2024/05/01 10:13:02;;;;;;;11.50;3.35;;;23.00;99.90;;;;;;5186047;27;20103;-89
2024/05/01 10:15:33;;;;;;;7.00;3.22;;;23.20;99.90;;;;;;5185931;27;20101;-88
2024/05/01 10:18:05;;;;;;;7.27;3.33;;;23.20;99.90;;;;;;5215073;27;20557;-92
2024/05/01 10:20:47;;;;;;;7.38;3.40;;;23.30;99.90;;;;;;5215431;27;20070;-89
2024/05/01 10:23:14;;;;;;;9.13;3.50;;;23.40;99.90;;;;;;5189222;27;20063;-88
2024/05/01 10:26:06;;;;;;;12.30;4.05;;;23.20;99.90;;;;;;5187055;27;20059;-90
2024/05/01 10:28:35;;;;;;;9.38;3.30;;;23.20;99.90;;;;;;5185686;27;20062;-89
2024/05/01 10:31:06;;;;;;;8.30;3.13;;;23.20;99.90;;;;;;5186095;27;20085;-88
2024/05/01 10:33:38;;;;;;;6.65;3.42;;;23.20;99.90;;;;;;5185974;27;20062;-91
2024/05/01 10:36:11;;;;;;;8.05;4.95;;;23.00;99.90;;;;;;5186128;27;20495;-89
2024/05/01 10:38:41;;;;;;;8.73;4.45;;;23.10;99.90;;;;;;5159308;27;20058;-89
2024/05/01 10:41:24;;;;;;;6.28;2.95;;;23.20;99.90;;;;;;5185610;27;20059;-88
2024/05/01 10:43:55;;;;;;;10.18;3.00;;;23.30;99.90;;;;;;5185452;27;20060;-90
2024/05/01 10:46:27;;;;;;;8.20;3.50;;;23.30;99.90;;;;;;5197379;27;20494;-92
2024/05/01 10:49:06;;;;;;;7.95;3.60;;;23.60;99.90;;;;;;5187069;27;20075;-89
2024/05/01 10:51:35;;;;;;;6.10;2.53;;;23.80;99.90;;;;;;5186981;27;20083;-91
2024/05/01 10:54:03;;;;;;;7.40;3.03;;;23.90;99.90;;;;;;5185677;27;20059;-93
2024/05/01 10:56:30;;;;;;;4.28;2.67;;;23.90;99.90;;;;;;5185965;27;20060;-88
2024/05/01 10:58:57;;;;;;;6.20;2.65;;;24.00;99.90;;;;;;5159150;27;20534;-90
2024/05/01 11:01:26;;;;;;;6.72;2.85;;;24.10;99.90;;;;;;5213390;27;20082;-88
2024/05/01 11:03:53;;;;;;;4.50;2.60;;;24.10;99.90;;;;;;5186339;27;20056;-89
2024/05/01 11:06:28;;;;;;;7.95;2.47;;;24.10;99.90;;;;;;5212847;27;20059;-89
2024/05/01 11:09:00;;;;;;;3.20;2.25;;;24.10;99.90;;;;;;5186566;27;20063;-90
2024/05/01 11:11:27;;;;;;;4.00;2.17;;;24.10;99.90;;;;;;5187391;27;20131;-89
2024/05/01 11:13:55;;;;;;;12.05;2.95;;;24.10;99.90;;;;;;5185899;27;20392;-89
2024/05/01 11:16:23;;;;;;;6.97;2.70;;;24.20;99.90;;;;;;5180701;27;20533;-88
2024/05/01 11:18:50;;;;;;;7.70;2.70;;;24.20;99.90;;;;;;5183205;27;20057;-90
2024/05/01 11:21:17;;;;;;;5.43;2.30;;;24.40;99.90;;;;;;5183888;27;20072;-91
2024/05/01 11:23:46;;;;;;;7.13;2.80;;;24.40;99.90;;;;;;5156231;27;20160;-92
2024/05/01 11:26:13;;;;;;;5.75;2.20;;;24.60;99.90;;;;;;5181210;27;20069;-91
2024/05/01 11:28:41;;;;;;;6.68;2.38;;;25.10;99.90;;;;;;5182876;27;20147;-93
2024/05/01 11:31:08;;;;;;;5.43;2.28;;;25.50;99.90;;;;;;5181025;27;20099;-91
2024/05/01 11:33:35;;;;;;;3.58;2.17;;;25.80;99.90;;;;;;5153267;27;20060;-94
2024/05/01 11:36:03;;;;;;;3.58;1.80;;;25.90;99.90;;;;;;5180991;27;20152;-95
2024/05/01 11:38:30;;;;;;;4.10;2.00;;;25.60;99.90;;;;;;5204181;27;20393;-93
2024/05/01 11:40:57;;;;;;;2.88;1.73;;;25.70;99.90;;;;;;5158832;27;20075;-91
2024/05/01 11:43:24;;;;;;;9.32;2.45;;;25.40;99.90;;;;;;5186388;27;20059;-93
2024/05/01 11:45:51;;;;;;;6.18;2.70;;;25.20;99.90;;;;;;5185440;27;20146;-95
2024/05/01 11:48:18;;;;;;;5.38;2.05;;;25.20;99.90;;;;;;5158332;27;20083;-92
2024/05/01 11:50:45;;;;;;;7.47;2.20;;;25.40;99.90;;;;;;5185231;27;20243;-91
2024/05/01 11:53:12;;;;;;;7.93;2.28;;;25.50;99.90;;;;;;5159468;27;20158;-92
2024/05/01 11:55:39;;;;;;;4.88;2.20;;;25.40;99.90;;;;;;5161387;27;20079;-92
2024/05/01 11:58:08;;;;;;;6.72;2.47;;;25.20;99.90;;;;;;5159642;27;20059;-94
2024/05/01 12:00:37;;;;;;;5.45;2.50;;;25.00;99.90;;;;;;5186660;27;20064;-90
2024/05/01 12:03:07;;;;;;;6.82;2.50;;;25.10;99.90;;;;;;5185351;27;20060;-90
2024/05/01 12:05:37;;;;;;;3.22;2.33;;;25.20;99.90;;;;;;5185429;27;20546;-94
2024/05/01 12:08:09;;;;;;;6.40;2.67;;;25.50;99.90;;;;;;5184936;27;20063;-90
2024/05/01 12:10:37;;;;;;;4.15;2.38;;;25.60;99.90;;;;;;5185142;27;20151;-92
2024/05/01 12:13:07;;;;;;;6.93;2.58;;;25.70;99.90;;;;;;5185211;27;20078;-93
2024/05/01 12:15:38;;;;;;;5.15;2.30;;;25.60;99.90;;;;;;5158057;27;20059;-90
2024/05/01 12:18:08;;;;;;;4.38;2.60;;;25.60;99.90;;;;;;5158028;27;20071;-92
2024/05/01 12:20:37;;;;;;;7.68;2.42;;;25.70;99.90;;;;;;5212439;27;20115;-90
2024/05/01 12:23:05;;;;;;;5.63;2.80;;;25.90;99.90;;;;;;5157469;27;20088;-91
2024/05/01 12:25:50;;;;;;;7.43;2.42;;;25.90;99.90;;;;;;5185301;27;20059;-92
2024/05/01 12:28:21;;;;;;;7.18;2.60;;;25.70;99.90;;;;;;5185577;27;20055;-92
2024/05/01 12:30:48;;;;;;;6.60;2.88;;;25.30;99.90;;;;;;5186118;27;20060;-92
2024/05/01 12:33:22;;;;;;;5.78;2.80;;;25.20;99.90;;;;;;5212420;27;20090;-93
2024/05/01 12:36:09;;;;;;;4.45;2.90;;;24.90;99.90;;;;;;5185275;27;20446;-93
2024/05/01 12:38:37;;;;;;;4.25;2.28;;;24.90;99.90;;;;;;5157693;27;20122;-91
2024/05/01 12:41:17;;;;;;;5.03;2.58;;;25.00;99.90;;;;;;5184750;27;20067;-92
2024/05/01 12:43:50;;;;;;;6.22;2.90;;;25.20;99.90;;;;;;5184620;27;20142;-92
2024/05/01 12:46:23;;;;;;;6.95;2.83;;;25.20;99.90;;;;;;5157613;27;20088;-93
2024/05/01 12:49:27;;;;;;;5.00;2.83;;;25.00;99.90;;;;;;5183892;27;20103;-92
2024/05/01 12:51:55;;;;;;;7.22;2.90;;;24.80;99.90;;;;;;5118536;27;20087;-92